Time;durP1;ratioP1;P1;durP2;ratioP2;P2;SDS_P1;SDS_P2;PMS_P1;PMS_P2;Temp;Humidity;BMP_temperature;BMP_pressure;BME280_temperature;BME280_humidity;BME280_pressure;Samples;Min_cycle;Max_cycle;Signal;HPM_P1;HPM_P2
2021/04/16 00:03:51;;;;;;;1.53;1.20;;;16.70;27.20;;;;;;8390471;28;20086;-58
2021/04/16 00:07:52;;;;;;;1.37;1.20;;;16.60;27.10;;;;;;8393829;28;20043;-59
2021/04/16 00:11:54;;;;;;;1.55;1.23;;;16.60;27.10;;;;;;8392076;28;20037;-58
2021/04/16 00:15:54;;;;;;;1.85;1.30;;;16.60;27.20;;;;;;8394352;28;20072;-58
2021/04/16 00:19:55;;;;;;;1.80;1.30;;;16.60;27.10;;;;;;8396517;28;20067;-58
2021/04/16 00:23:55;;;;;;;1.20;1.10;;;16.60;27.10;;;;;;8367681;28;20036;-57
2021/04/16 00:27:57;;;;;;;1.10;0.97;;;16.60;27.20;;;;;;8374139;28;20542;-58
2021/04/16 00:31:58;;;;;;;1.00;0.90;;;16.60;27.20;;;;;;8392801;28;20162;-57
2021/04/16 00:35:58;;;;;;;1.23;1.10;;;16.60;27.20;;;;;;8395637;28;20036;-58
2021/04/16 00:39:59;;;;;;;1.60;1.40;;;16.60;27.20;;;;;;8392391;28;20107;-58
2021/04/16 00:44:00;;;;;;;1.33;1.20;;;16.60;27.20;;;;;;8392464;28;20060;-57
2021/04/16 00:48:05;;;;;;;1.60;1.33;;;16.60;27.20;;;;;;8382557;28;20477;-58
2021/04/16 00:52:07;;;;;;;1.52;1.00;;;16.60;27.20;;;;;;8364189;28;20065;-58
2021/04/16 00:56:08;;;;;;;1.52;1.10;;;16.50;27.10;;;;;;8391319;28;20032;-58
2021/04/16 01:00:10;;;;;;;1.50;1.30;;;16.60;27.20;;;;;;8390343;28;20048;-57
2021/04/16 01:04:12;;;;;;;1.83;1.13;;;16.50;27.10;;;;;;8380017;28;20084;-58
2021/04/16 01:08:16;;;;;;;2.25;1.08;;;16.50;27.20;;;;;;8382699;28;20032;-58
2021/04/16 01:27:12;;;;;;;1.75;1.30;;;16.50;27.20;;;;;;8361706;28;20043;-56
2021/04/16 01:31:20;;;;;;;1.10;1.00;;;16.50;27.20;;;;;;8379687;28;20074;-57
2021/04/16 01:35:34;;;;;;;1.90;1.15;;;16.50;27.20;;;;;;8391098;28;20040;-57
2021/04/16 01:39:35;;;;;;;1.42;1.10;;;16.50;27.20;;;;;;8389469;28;20447;-57
2021/04/16 01:43:41;;;;;;;1.10;1.00;;;16.40;27.20;;;;;;8395880;28;20033;-57
2021/04/16 01:47:41;;;;;;;1.42;1.08;;;16.40;27.20;;;;;;8363517;28;20068;-57
2021/04/16 01:51:43;;;;;;;1.83;1.20;;;16.40;27.10;;;;;;8375279;28;20473;-57
2021/04/16 01:55:51;;;;;;;1.75;1.20;;;16.40;27.10;;;;;;8390870;28;20060;-57
2021/04/16 01:59:52;;;;;;;1.77;1.00;;;16.40;27.10;;;;;;8395747;28;20040;-57
2021/04/16 02:03:53;;;;;;;1.40;1.05;;;16.40;27.10;;;;;;8400145;28;20495;-57
2021/04/16 02:07:54;;;;;;;1.40;0.90;;;16.40;27.10;;;;;;8374452;28;20086;-57
2021/04/16 02:11:58;;;;;;;1.30;1.10;;;16.40;27.10;;;;;;8362738;27;20045;-64
2021/04/16 02:16:06;;;;;;;2.15;1.33;;;16.40;27.20;;;;;;8363162;28;20043;-60
2021/04/16 02:20:12;;;;;;;1.30;1.20;;;16.30;27.10;;;;;;8369754;28;20119;-62
2021/04/16 02:24:19;;;;;;;1.23;1.10;;;16.30;27.10;;;;;;8368803;28;20048;-60
2021/04/16 02:28:19;;;;;;;1.67;1.15;;;16.30;27.20;;;;;;8363253;28;20082;-63
2021/04/16 02:32:20;;;;;;;2.07;1.23;;;16.30;27.10;;;;;;8372515;28;20469;-57
2021/04/16 02:36:24;;;;;;;1.43;1.30;;;16.30;27.10;;;;;;8396015;28;20469;-57
2021/04/16 02:40:26;;;;;;;1.15;1.00;;;16.30;27.10;;;;;;8354145;28;20533;-57
2021/04/16 02:44:27;;;;;;;1.92;0.90;;;16.30;27.20;;;;;;8377412;28;20028;-57
2021/04/16 02:48:28;;;;;;;1.20;1.10;;;16.30;27.10;;;;;;8394722;28;20043;-56
2021/04/16 02:52:29;;;;;;;1.23;1.10;;;16.30;27.10;;;;;;8396261;28;20473;-59
2021/04/16 02:56:29;;;;;;;2.83;1.17;;;16.30;27.10;;;;;;8400619;28;20032;-57
2021/04/16 03:00:31;;;;;;;2.33;1.43;;;16.30;27.10;;;;;;8393732;28;20554;-57
2021/04/16 03:04:32;;;;;;;1.92;1.20;;;16.20;27.10;;;;;;8396189;28;20123;-57
2021/04/16 03:08:34;;;;;;;2.30;1.00;;;16.30;27.10;;;;;;8395754;28;20039;-57
2021/04/16 03:12:34;;;;;;;1.50;1.10;;;16.20;27.10;;;;;;8398445;28;20037;-57
2021/04/16 03:16:35;;;;;;;1.97;1.30;;;16.20;27.10;;;;;;8395864;28;20548;-57
2021/04/16 03:20:35;;;;;;;3.23;1.30;;;16.20;27.10;;;;;;8393991;28;20048;-59
2021/04/16 03:24:36;;;;;;;2.27;1.33;;;16.20;27.10;;;;;;8393640;28;20095;-59
2021/04/16 03:28:37;;;;;;;2.57;1.07;;;16.20;27.10;;;;;;8395055;28;20115;-57
2021/04/16 03:32:37;;;;;;;1.10;1.00;;;16.20;27.10;;;;;;8399450;28;20032;-59
2021/04/16 03:36:38;;;;;;;2.03;1.17;;;16.20;27.10;;;;;;8393342;28;20044;-57
2021/04/16 03:40:39;;;;;;;2.63;1.00;;;16.20;27.10;;;;;;8394930;28;20524;-59
2021/04/16 03:44:39;;;;;;;2.20;0.90;;;16.20;27.10;;;;;;8394767;28;20043;-57
2021/04/16 03:48:41;;;;;;;2.40;1.10;;;16.20;27.10;;;;;;8397404;28;20477;-58
2021/04/16 03:52:41;;;;;;;2.50;1.02;;;16.20;27.20;;;;;;8394615;28;20033;-58
2021/04/16 03:56:42;;;;;;;2.00;1.30;;;16.20;27.10;;;;;;8394985;28;20032;-58
2021/04/16 04:00:42;;;;;;;1.50;0.93;;;16.20;27.10;;;;;;8392323;28;20049;-59
2021/04/16 04:04:43;;;;;;;1.63;1.20;;;16.20;27.20;;;;;;8380061;28;20037;-60
2021/04/16 04:08:43;;;;;;;2.43;1.37;;;16.20;27.20;;;;;;8363494;28;20067;-58
2021/04/16 04:12:44;;;;;;;1.33;1.00;;;16.20;27.20;;;;;;8366834;28;20528;-59
2021/04/16 04:17:00;;;;;;;1.52;1.08;;;16.10;27.20;;;;;;8394060;28;20132;-59
2021/04/16 04:21:01;;;;;;;1.27;1.10;;;16.10;27.60;;;;;;8391062;28;20493;-59
2021/04/16 04:25:01;;;;;;;1.00;0.90;;;16.20;27.20;;;;;;8397790;28;20025;-57
2021/04/16 04:29:02;;;;;;;1.67;1.20;;;16.10;27.10;;;;;;8393314;28;20043;-59
2021/04/16 04:33:04;;;;;;;1.20;1.10;;;16.10;27.20;;;;;;8372635;28;20136;-57
2021/04/16 04:37:07;;;;;;;1.45;1.20;;;16.10;27.20;;;;;;8370033;28;20373;-58
2021/04/16 04:41:07;;;;;;;2.13;1.27;;;16.10;27.10;;;;;;8394489;28;20490;-59
2021/04/16 04:45:08;;;;;;;1.63;0.90;;;16.10;27.10;;;;;;8393775;28;20043;-58
2021/04/16 04:49:10;;;;;;;1.83;1.35;;;16.10;27.10;;;;;;8369759;28;20033;-59
2021/04/16 04:53:10;;;;;;;1.50;1.40;;;16.10;27.10;;;;;;8373353;28;20071;-57
2021/04/16 04:57:11;;;;;;;1.37;1.23;;;16.10;27.10;;;;;;8390922;28;20166;-58
2021/04/16 05:01:11;;;;;;;1.70;1.20;;;16.10;27.20;;;;;;8396852;28;20119;-57
2021/04/16 05:05:14;;;;;;;1.27;1.17;;;16.10;27.20;;;;;;8392071;28;20029;-57
2021/04/16 05:09:15;;;;;;;2.03;1.55;;;16.10;27.20;;;;;;8389484;28;20042;-58
2021/04/16 05:13:15;;;;;;;1.77;1.10;;;16.10;27.20;;;;;;8391758;28;20405;-57
2021/04/16 05:17:16;;;;;;;1.37;1.27;;;16.10;27.10;;;;;;8396018;28;20036;-58
2021/04/16 05:21:17;;;;;;;1.73;1.20;;;16.10;27.10;;;;;;8389861;28;20036;-58
2021/04/16 05:25:18;;;;;;;1.85;1.23;;;16.10;27.10;;;;;;8391785;28;20044;-58
2021/04/16 05:29:19;;;;;;;1.40;1.30;;;16.10;27.20;;;;;;8390776;28;20132;-59
2021/04/16 05:33:19;;;;;;;1.53;1.20;;;16.10;27.20;;;;;;8388271;28;20492;-58
2021/04/16 05:37:20;;;;;;;1.63;1.20;;;16.10;27.20;;;;;;8395801;28;20029;-58
2021/04/16 05:41:21;;;;;;;1.33;1.17;;;16.10;27.20;;;;;;8391202;28;20053;-58
2021/04/16 05:45:22;;;;;;;0.93;0.93;;;16.10;27.20;;;;;;8389496;28;20493;-58
2021/04/16 05:49:26;;;;;;;1.30;1.20;;;16.10;27.20;;;;;;8391093;28;20271;-58
2021/04/16 05:53:27;;;;;;;1.77;1.20;;;16.10;27.20;;;;;;8395500;28;20029;-58
2021/04/16 05:57:27;;;;;;;2.03;1.30;;;16.10;27.10;;;;;;8389253;28;20037;-58
2021/04/16 06:01:28;;;;;;;2.57;1.30;;;16.10;27.10;;;;;;8389314;28;20053;-58
2021/04/16 06:05:29;;;;;;;1.80;1.43;;;16.20;27.10;;;;;;8390796;28;20032;-59
2021/04/16 06:09:29;;;;;;;4.27;1.40;;;16.20;27.00;;;;;;8393310;28;20041;-60
2021/04/16 06:13:30;;;;;;;2.27;1.50;;;16.20;27.10;;;;;;8391786;28;20029;-58
2021/04/16 06:17:31;;;;;;;2.13;1.50;;;16.30;26.90;;;;;;8390400;28;20538;-57
2021/04/16 06:21:32;;;;;;;1.40;1.20;;;16.30;27.30;;;;;;8388708;28;20056;-58
2021/04/16 06:25:34;;;;;;;1.85;1.38;;;16.30;26.80;;;;;;8390602;28;20068;-58
2021/04/16 06:29:35;;;;;;;1.30;1.10;;;16.40;26.80;;;;;;8394858;28;20128;-59
2021/04/16 06:33:38;;;;;;;2.53;1.20;;;16.50;26.70;;;;;;8388629;28;20056;-59
2021/04/16 06:37:38;;;;;;;1.50;1.00;;;16.50;26.70;;;;;;8390437;28;20040;-59
2021/04/16 06:41:39;;;;;;;1.20;1.10;;;16.50;26.60;;;;;;8388931;28;20044;-58
2021/04/16 06:45:40;;;;;;;1.77;1.50;;;16.60;26.50;;;;;;8395779;28;20473;-58
2021/04/16 06:49:41;;;;;;;2.07;1.10;;;16.70;26.40;;;;;;8396055;28;20263;-58
2021/04/16 06:54:02;;;;;;;1.53;1.33;;;16.90;26.20;;;;;;8395027;28;20489;-58
2021/04/16 06:58:16;;;;;;;2.00;1.20;;;17.00;26.20;;;;;;8394694;28;20036;-58
2021/04/16 07:02:17;;;;;;;1.52;1.38;;;16.90;26.20;;;;;;8389862;28;20476;-58
2021/04/16 07:06:28;;;;;;;1.77;1.07;;;17.00;26.20;;;;;;8365560;28;20040;-57
2021/04/16 07:10:31;;;;;;;1.38;1.00;;;17.00;26.10;;;;;;8393534;28;20036;-57
2021/04/16 07:14:37;;;;;;;2.78;1.40;;;17.00;26.10;;;;;;8395412;28;20060;-57
2021/04/16 07:18:41;;;;;;;2.03;1.30;;;17.00;26.20;;;;;;8392675;28;20568;-58
2021/04/16 07:22:53;;;;;;;1.75;1.20;;;16.90;26.30;;;;;;8394890;28;20086;-59
2021/04/16 07:26:58;;;;;;;1.27;1.00;;;16.80;26.40;;;;;;8398010;28;20062;-58
2021/04/16 07:31:24;;;;;;;1.08;0.98;;;16.80;26.50;;;;;;8394964;28;20056;-59
2021/04/16 07:35:31;;;;;;;4.07;1.20;;;16.80;26.50;;;;;;8393794;28;20037;-58
2021/04/16 07:39:35;;;;;;;1.48;1.10;;;16.70;26.50;;;;;;8392971;28;20078;-58
2021/04/16 07:43:50;;;;;;;1.83;1.10;;;16.70;26.50;;;;;;8393994;28;20028;-58
2021/04/16 07:48:14;;;;;;;1.17;1.00;;;16.70;26.60;;;;;;8397089;28;20134;-57
2021/04/16 07:52:23;;;;;;;2.40;1.00;;;16.70;26.70;;;;;;8394328;28;20040;-58
2021/04/16 07:56:23;;;;;;;1.38;1.10;;;16.60;26.70;;;;;;8393591;28;20079;-58
2021/04/16 08:00:34;;;;;;;1.30;1.00;;;16.60;26.80;;;;;;8392384;28;20048;-58
2021/04/16 08:04:35;;;;;;;1.95;1.00;;;16.60;26.80;;;;;;8394145;28;20377;-57
2021/04/16 08:08:45;;;;;;;2.03;1.02;;;16.60;26.80;;;;;;8398195;28;20071;-58
2021/04/16 08:12:45;;;;;;;1.38;1.08;;;16.60;26.90;;;;;;8391432;28;20098;-58
2021/04/16 08:17:05;;;;;;;1.60;1.00;;;16.50;26.90;;;;;;8393458;28;20040;-58
2021/04/16 08:21:07;;;;;;;1.65;1.10;;;16.60;26.90;;;;;;8391754;28;20066;-58
2021/04/16 08:25:13;;;;;;;1.67;0.95;;;16.60;26.90;;;;;;8393260;28;20089;-58
2021/04/16 08:29:38;;;;;;;1.25;1.13;;;16.60;26.90;;;;;;8397350;28;20056;-58
2021/04/16 08:33:45;;;;;;;1.30;1.00;;;16.60;26.90;;;;;;8361741;28;20040;-57
2021/04/16 08:37:54;;;;;;;2.63;1.10;;;16.60;26.90;;;;;;8381508;28;20036;-59
2021/04/16 08:42:03;;;;;;;2.13;1.20;;;16.60;26.90;;;;;;8391104;28;20036;-59
2021/04/16 08:46:28;;;;;;;1.30;0.90;;;16.60;26.90;;;;;;8392985;28;20029;-60
2021/04/16 08:50:33;;;;;;;2.10;1.17;;;16.60;26.90;;;;;;8396793;28;20028;-58
2021/04/16 08:54:35;;;;;;;1.20;0.90;;;16.60;26.90;;;;;;8390690;28;20048;-59
2021/04/16 08:58:38;;;;;;;1.25;0.98;;;16.60;26.90;;;;;;8371881;28;20044;-58
2021/04/16 09:02:52;;;;;;;0.95;0.80;;;16.60;27.00;;;;;;8372529;28;20040;-58
2021/04/16 09:06:56;;;;;;;1.33;1.20;;;16.70;27.00;;;;;;8391422;28;20040;-58
2021/04/16 09:10:58;;;;;;;1.17;1.08;;;16.70;26.90;;;;;;8396749;28;20035;-58
2021/04/16 09:14:59;;;;;;;1.63;0.80;;;16.70;26.90;;;;;;8388175;28;20032;-58
2021/04/16 09:19:26;;;;;;;1.63;0.80;;;16.70;26.90;;;;;;8391483;28;20401;-58
2021/04/16 09:23:26;;;;;;;1.63;0.98;;;16.70;26.90;;;;;;8391072;28;20024;-58
2021/04/16 09:27:40;;;;;;;0.80;0.80;;;16.80;26.90;;;;;;8389763;28;20032;-58
2021/04/16 09:31:40;;;;;;;1.05;0.90;;;16.80;26.90;;;;;;8395862;28;20033;-58
2021/04/16 09:35:41;;;;;;;2.10;1.27;;;16.80;26.90;;;;;;8391393;28;20390;-58
2021/04/16 09:39:59;;;;;;;1.00;0.90;;;16.90;27.00;;;;;;8389700;28;20107;-58
2021/04/16 09:44:29;;;;;;;0.95;0.73;;;16.80;26.90;;;;;;8390216;28;20036;-58
2021/04/16 09:48:50;;;;;;;1.02;0.90;;;16.90;26.80;;;;;;8385865;28;20029;-58
2021/04/16 09:53:09;;;;;;;0.80;0.80;;;16.90;26.80;;;;;;8362532;28;20030;-58
2021/04/16 09:57:09;;;;;;;1.75;0.80;;;16.90;26.80;;;;;;8386958;28;20063;-58
2021/04/16 10:01:17;;;;;;;1.23;0.80;;;17.00;26.90;;;;;;8369516;28;20048;-58
2021/04/16 10:05:18;;;;;;;2.72;1.27;;;16.90;26.80;;;;;;8390623;28;20124;-58
2021/04/16 10:09:19;;;;;;;0.85;0.80;;;17.00;26.80;;;;;;8388633;28;20039;-58
2021/04/16 10:13:21;;;;;;;1.10;0.90;;;17.00;26.80;;;;;;8395379;28;20024;-58
2021/04/16 10:17:25;;;;;;;0.80;0.80;;;17.00;26.80;;;;;;8363241;28;20393;-58
2021/04/16 10:21:29;;;;;;;1.13;0.90;;;17.00;26.80;;;;;;8354234;28;20461;-58
2021/04/16 10:26:55;;;;;;;1.25;1.08;;;17.10;26.80;;;;;;8396839;28;20043;-58
2021/04/16 11:20:44;;;;;;;0.70;0.70;;;17.20;26.70;;;;;;8373589;28;20107;-58
2021/04/16 12:42:43;;;;;;;0.80;0.80;;;17.30;26.60;;;;;;8390971;28;20044;-58
2021/04/16 12:46:44;;;;;;;2.33;0.73;;;17.30;27.10;;;;;;8392593;28;20037;-58
2021/04/16 12:50:44;;;;;;;1.30;0.80;;;17.40;26.70;;;;;;8387311;28;20035;-58
2021/04/16 12:54:49;;;;;;;1.23;0.70;;;17.40;26.70;;;;;;8362778;28;20120;-58
2021/04/16 12:58:49;;;;;;;0.60;0.60;;;17.30;26.60;;;;;;8366903;28;20041;-58
2021/04/16 13:03:28;;;;;;;0.73;0.70;;;17.40;26.70;;;;;;8378020;28;20482;-57
2021/04/16 13:07:29;;;;;;;0.80;0.73;;;17.40;26.70;;;;;;8353183;28;20516;-57
2021/04/16 13:11:30;;;;;;;1.40;0.70;;;17.40;26.70;;;;;;8391596;28;20024;-57
2021/04/16 13:15:31;;;;;;;0.60;0.60;;;17.40;26.60;;;;;;8394217;28;20047;-56
2021/04/16 13:19:37;;;;;;;1.33;0.70;;;17.40;26.70;;;;;;8376849;28;20057;-57
2021/04/16 13:23:37;;;;;;;3.08;0.80;;;17.50;26.60;;;;;;8378368;28;20041;-57
2021/04/16 13:27:38;;;;;;;0.80;0.60;;;17.50;26.60;;;;;;8389731;28;20055;-57
2021/04/16 13:31:39;;;;;;;0.93;0.57;;;17.50;26.60;;;;;;8392294;28;20036;-58
2021/04/16 13:35:43;;;;;;;0.80;0.70;;;17.50;26.60;;;;;;8394307;28;20134;-57
2021/04/16 13:39:46;;;;;;;0.85;0.68;;;17.50;26.60;;;;;;8389082;28;20100;-58
2021/04/16 13:43:52;;;;;;;0.70;0.63;;;17.50;26.60;;;;;;8391098;28;20037;-58
2021/04/16 13:47:52;;;;;;;0.70;0.60;;;17.50;26.60;;;;;;8388813;28;20028;-58
2021/04/16 13:51:53;;;;;;;0.93;0.70;;;17.50;26.60;;;;;;8395760;28;20525;-59
2021/04/16 13:55:53;;;;;;;0.60;0.60;;;17.50;26.60;;;;;;8375792;28;20037;-57
2021/04/16 13:59:54;;;;;;;0.53;0.53;;;17.50;26.60;;;;;;8373691;28;20401;-57
2021/04/16 14:04:19;;;;;;;1.00;0.70;;;17.50;26.50;;;;;;8389990;28;20029;-58
2021/04/16 14:08:29;;;;;;;1.17;0.60;;;17.50;26.50;;;;;;8364216;28;20047;-56
2021/04/16 14:12:29;;;;;;;1.33;0.80;;;17.50;26.60;;;;;;8393637;28;20032;-58
2021/04/16 14:16:36;;;;;;;0.90;0.63;;;17.50;26.50;;;;;;8390498;28;20110;-59
2021/04/16 14:20:39;;;;;;;3.15;1.05;;;17.50;26.50;;;;;;8390324;28;20044;-58
2021/04/16 14:24:40;;;;;;;1.58;1.00;;;17.50;26.60;;;;;;8388626;28;20035;-59
2021/04/16 14:28:42;;;;;;;0.70;0.70;;;17.50;26.50;;;;;;8393252;28;20056;-58
2021/04/16 14:32:43;;;;;;;0.57;0.57;;;17.60;26.60;;;;;;8389956;28;20036;-56
2021/04/16 14:36:44;;;;;;;0.83;0.73;;;17.50;26.50;;;;;;8362983;28;20436;-59
2021/04/16 14:40:45;;;;;;;0.50;0.50;;;17.50;26.50;;;;;;8356277;28;20040;-58
2021/04/16 14:44:45;;;;;;;0.93;0.80;;;17.50;26.50;;;;;;8365185;28;20032;-56
2021/04/16 14:48:46;;;;;;;0.77;0.70;;;17.50;26.50;;;;;;8364885;28;20526;-55
2021/04/16 14:52:46;;;;;;;1.17;0.77;;;17.50;26.50;;;;;;8360231;28;20482;-56
2021/04/16 14:56:47;;;;;;;1.27;0.80;;;17.50;26.60;;;;;;8361921;28;20033;-56
2021/04/16 15:00:48;;;;;;;0.63;0.60;;;17.50;26.90;;;;;;8358916;28;20103;-57
2021/04/16 15:04:49;;;;;;;0.67;0.67;;;17.50;26.50;;;;;;8359078;28;20048;-56
2021/04/16 15:08:53;;;;;;;1.00;0.80;;;17.50;26.60;;;;;;8373038;28;20032;-57
2021/04/16 15:12:54;;;;;;;0.98;0.80;;;17.50;26.50;;;;;;8370661;28;20029;-57
2021/04/16 15:16:55;;;;;;;1.05;0.80;;;17.60;26.50;;;;;;8369337;28;20041;-57
2021/04/16 15:20:58;;;;;;;0.60;0.60;;;17.60;26.60;;;;;;8363918;28;20110;-57
2021/04/16 15:24:59;;;;;;;0.80;0.80;;;17.60;26.50;;;;;;8366718;28;20029;-57
2021/04/16 15:29:05;;;;;;;;;;;17.50;26.50;;;;;;8372735;28;20039;-57
2021/04/16 15:33:16;;;;;;;0.60;0.60;;;17.60;26.50;;;;;;8361009;27;19927;-56
2021/04/16 15:46:05;;;;;;;0.93;0.75;;;17.60;26.60;;;;;;8362987;28;20091;-57
2021/04/16 15:50:11;;;;;;;0.97;0.70;;;17.60;26.50;;;;;;8374500;28;20040;-57
2021/04/16 15:54:13;;;;;;;1.00;0.90;;;17.50;26.50;;;;;;8363350;28;20045;-57
2021/04/16 15:58:20;;;;;;;0.98;0.85;;;17.50;26.60;;;;;;8373524;28;20436;-57
2021/04/16 16:02:21;;;;;;;0.90;0.70;;;17.50;26.50;;;;;;8370304;28;20135;-57
2021/04/16 16:06:22;;;;;;;1.23;0.83;;;17.60;27.00;;;;;;8364116;28;20478;-58
2021/04/16 16:10:22;;;;;;;1.50;0.90;;;17.60;27.00;;;;;;8349153;28;20060;-57
2021/04/16 16:14:28;;;;;;;1.27;0.80;;;17.60;26.60;;;;;;8373903;27;20280;-57
2021/04/16 16:18:33;;;;;;;1.00;0.60;;;17.60;26.60;;;;;;8367043;28;20137;-58
2021/04/16 16:22:34;;;;;;;0.77;0.77;;;17.60;26.60;;;;;;8373520;28;20044;-58
2021/04/16 16:26:43;;;;;;;0.73;0.60;;;17.60;26.60;;;;;;8364565;28;20516;-58
2021/04/16 16:30:44;;;;;;;2.38;1.05;;;17.60;26.70;;;;;;8366616;28;20061;-57
2021/04/16 16:34:45;;;;;;;1.43;0.80;;;17.60;26.70;;;;;;8374991;28;20072;-57
2021/04/16 16:38:45;;;;;;;0.97;0.83;;;17.50;26.70;;;;;;8363576;28;20112;-57
2021/04/16 16:42:49;;;;;;;0.83;0.83;;;17.50;26.70;;;;;;8365976;28;20041;-58
2021/04/16 16:46:51;;;;;;;0.65;0.65;;;17.50;26.60;;;;;;8360163;28;20059;-57
2021/04/16 16:50:52;;;;;;;2.08;1.00;;;17.50;26.70;;;;;;8370456;28;20032;-58
2021/04/16 16:54:52;;;;;;;1.00;0.88;;;17.50;26.70;;;;;;8361418;28;20047;-57
2021/04/16 16:58:53;;;;;;;1.03;0.87;;;17.50;26.70;;;;;;8376547;28;20041;-58
2021/04/16 17:02:53;;;;;;;0.70;0.70;;;17.50;26.70;;;;;;8380220;28;20113;-58
2021/04/16 17:06:54;;;;;;;1.23;0.90;;;17.50;26.70;;;;;;8372863;28;20033;-58
2021/04/16 17:10:57;;;;;;;0.80;0.80;;;17.50;26.70;;;;;;8359233;28;20032;-58
2021/04/16 17:14:58;;;;;;;1.58;0.90;;;17.50;26.80;;;;;;8360954;28;20033;-58
2021/04/16 17:18:59;;;;;;;1.10;0.88;;;17.50;26.80;;;;;;8389591;28;20515;-58
2021/04/16 17:23:00;;;;;;;0.82;0.80;;;17.50;26.70;;;;;;8370845;28;20033;-58
2021/04/16 17:27:10;;;;;;;1.17;1.07;;;17.50;26.90;;;;;;8367967;28;20333;-58
2021/04/16 17:31:13;;;;;;;1.42;0.93;;;17.50;26.90;;;;;;8391426;28;20371;-56
2021/04/16 17:35:14;;;;;;;0.90;0.75;;;17.40;26.80;;;;;;8395462;28;20531;-59
2021/04/16 17:39:15;;;;;;;1.27;1.00;;;17.50;26.90;;;;;;8363349;28;20048;-59
2021/04/16 17:43:24;;;;;;;1.98;1.10;;;17.50;26.80;;;;;;8374255;28;20484;-59
2021/04/16 17:47:24;;;;;;;1.13;0.80;;;17.40;26.80;;;;;;8391117;28;20039;-59
2021/04/16 17:51:28;;;;;;;0.97;0.87;;;17.40;26.80;;;;;;8393882;28;20040;-59
2021/04/16 17:55:29;;;;;;;1.05;0.80;;;17.40;26.90;;;;;;8358898;28;20059;-58
2021/04/16 17:59:31;;;;;;;1.25;0.90;;;17.40;26.90;;;;;;8379546;28;20047;-59
2021/04/16 18:03:32;;;;;;;1.50;0.77;;;17.40;26.90;;;;;;8370745;28;20033;-59
2021/04/16 18:07:36;;;;;;;0.90;0.83;;;17.40;26.90;;;;;;8327448;28;20378;-59
2021/04/16 18:11:37;;;;;;;2.53;1.40;;;17.40;26.90;;;;;;8385661;28;20032;-59
2021/04/16 18:15:37;;;;;;;1.10;0.87;;;17.30;26.90;;;;;;8388551;28;20044;-59
2021/04/16 18:19:38;;;;;;;1.47;1.07;;;17.30;26.90;;;;;;8390390;28;20065;-59
2021/04/16 18:23:58;;;;;;;1.27;0.97;;;17.30;26.90;;;;;;8390279;28;20035;-60
2021/04/16 18:27:59;;;;;;;1.10;1.00;;;17.30;26.90;;;;;;8393431;28;20557;-57
2021/04/16 18:32:00;;;;;;;1.30;0.90;;;17.30;26.90;;;;;;8357800;28;20045;-58
2021/04/16 18:36:04;;;;;;;1.52;0.95;;;17.30;26.90;;;;;;8378254;28;20032;-58
2021/04/16 18:40:28;;;;;;;1.23;0.90;;;17.30;26.90;;;;;;8390640;28;20040;-59
2021/04/16 18:44:33;;;;;;;1.55;0.85;;;17.30;27.00;;;;;;8396237;28;20576;-58
2021/04/16 18:48:33;;;;;;;1.02;0.82;;;17.30;27.00;;;;;;8374041;28;20047;-58
2021/04/16 18:52:43;;;;;;;0.90;0.90;;;17.30;26.90;;;;;;8365283;28;20386;-58
2021/04/16 18:56:43;;;;;;;0.85;0.70;;;17.30;27.00;;;;;;8363771;28;20082;-58
2021/04/16 19:00:47;;;;;;;0.77;0.77;;;17.30;27.00;;;;;;8372557;28;20504;-58
2021/04/16 19:04:48;;;;;;;1.17;1.05;;;17.30;27.00;;;;;;8395910;28;20374;-58
2021/04/16 19:08:49;;;;;;;2.15;1.08;;;17.20;26.90;;;;;;8398553;28;20036;-58
2021/04/16 19:12:50;;;;;;;0.80;0.80;;;17.20;26.90;;;;;;8395943;28;20071;-58
2021/04/16 19:16:53;;;;;;;1.10;1.00;;;17.20;26.90;;;;;;8378162;28;20033;-58
2021/04/16 19:21:00;;;;;;;1.50;0.90;;;17.20;27.00;;;;;;8354988;28;20053;-58
2021/04/16 19:25:07;;;;;;;1.58;1.17;;;17.20;27.40;;;;;;8356513;28;20030;-57
2021/04/16 19:29:08;;;;;;;1.00;0.80;;;17.20;27.00;;;;;;8380694;28;20036;-57
2021/04/16 19:33:10;;;;;;;1.90;0.90;;;17.20;26.90;;;;;;8393191;28;20170;-57
2021/04/16 19:37:24;;;;;;;0.95;0.80;;;17.20;26.90;;;;;;8383325;28;20390;-57
2021/04/16 19:41:29;;;;;;;1.70;1.00;;;17.20;27.00;;;;;;8366240;28;20044;-57
2021/04/16 19:45:30;;;;;;;1.23;1.13;;;17.20;27.00;;;;;;8397437;28;20032;-58
2021/04/16 19:58:54;;;;;;;1.10;0.90;;;17.20;26.90;;;;;;8394413;28;20113;-57
2021/04/16 20:20:16;;;;;;;3.28;1.08;;;17.10;26.90;;;;;;8383293;28;20055;-57
2021/04/16 20:24:19;;;;;;;1.10;0.77;;;17.20;26.80;;;;;;8391359;28;20044;-59
2021/04/16 20:28:19;;;;;;;1.48;0.98;;;17.20;26.80;;;;;;8393133;28;20039;-57
2021/04/16 20:32:27;;;;;;;0.90;0.80;;;17.10;26.80;;;;;;8397611;28;20040;-57
2021/04/16 20:36:31;;;;;;;1.15;0.90;;;17.10;26.80;;;;;;8391424;28;20044;-59
2021/04/16 20:40:40;;;;;;;1.35;1.00;;;17.10;26.80;;;;;;8372737;28;20052;-58
2021/04/16 20:44:40;;;;;;;1.10;1.00;;;17.10;26.80;;;;;;8371103;28;20020;-57
2021/04/16 20:48:51;;;;;;;1.13;0.80;;;17.10;26.70;;;;;;8391018;28;20032;-59
2021/04/16 20:52:51;;;;;;;2.65;1.17;;;17.10;26.80;;;;;;8397077;28;20503;-59
2021/04/16 20:56:52;;;;;;;1.20;1.10;;;17.10;26.70;;;;;;8391482;28;20123;-58
2021/04/16 21:00:53;;;;;;;1.65;1.08;;;17.10;26.70;;;;;;8392194;28;20054;-58
2021/04/16 21:04:54;;;;;;;1.38;1.13;;;17.10;26.70;;;;;;8391827;28;20496;-58
2021/04/16 21:08:58;;;;;;;1.07;0.83;;;17.10;26.70;;;;;;8394735;28;20044;-57
2021/04/16 21:12:59;;;;;;;1.33;1.00;;;17.10;26.70;;;;;;8392090;28;20031;-59
2021/04/16 21:17:01;;;;;;;2.10;1.00;;;17.10;26.80;;;;;;8391822;28;20040;-57
2021/04/16 21:21:19;;;;;;;1.55;1.05;;;17.10;26.70;;;;;;8390289;28;20047;-58
2021/04/16 21:25:22;;;;;;;1.70;1.20;;;17.10;26.80;;;;;;8391504;28;20032;-58
2021/04/16 21:29:24;;;;;;;1.80;1.00;;;17.10;26.80;;;;;;8395890;28;20025;-58
2021/04/16 21:33:40;;;;;;;2.15;1.10;;;17.00;26.80;;;;;;8362534;28;20083;-58
2021/04/16 21:37:42;;;;;;;2.20;1.20;;;17.00;26.80;;;;;;8378360;28;20123;-58
2021/04/16 21:41:43;;;;;;;1.38;1.02;;;17.00;26.80;;;;;;8381806;28;20394;-58
2021/04/16 21:45:49;;;;;;;;;;;17.00;26.80;;;;;;8358358;28;20432;-58
2021/04/16 21:49:51;;;;;;;0.95;0.95;;;17.00;26.80;;;;;;8395881;28;19954;-58
2021/04/16 21:53:55;;;;;;;1.45;1.00;;;17.00;26.80;;;;;;8389266;28;20044;-58
2021/04/16 21:57:56;;;;;;;2.28;1.13;;;16.90;26.80;;;;;;8376361;28;20429;-58
2021/04/16 22:02:27;;;;;;;1.40;1.30;;;17.00;26.80;;;;;;8370584;27;20041;-58
2021/04/16 22:06:39;;;;;;;1.43;1.27;;;17.00;26.80;;;;;;8393684;28;20067;-58
2021/04/16 22:10:44;;;;;;;1.33;1.20;;;16.90;26.80;;;;;;8362096;28;20041;-58
2021/04/16 22:14:51;;;;;;;1.77;1.20;;;16.90;26.80;;;;;;8383088;28;20029;-58
2021/04/16 22:18:52;;;;;;;1.20;1.00;;;16.90;26.80;;;;;;8396167;28;20040;-58
2021/04/16 22:22:56;;;;;;;2.13;1.20;;;16.90;26.80;;;;;;8391399;28;20444;-58
2021/04/16 22:27:16;;;;;;;1.55;1.35;;;16.90;26.80;;;;;;8366889;28;20283;-58
2021/04/16 22:31:29;;;;;;;3.38;1.25;;;16.90;26.80;;;;;;8396998;28;20072;-58
2021/04/16 22:35:38;;;;;;;1.42;1.33;;;16.90;26.80;;;;;;8397073;28;20028;-58
2021/04/16 22:39:38;;;;;;;2.03;1.40;;;16.90;26.80;;;;;;8395302;28;20056;-58
2021/04/16 22:43:52;;;;;;;2.20;1.20;;;16.80;26.80;;;;;;8397023;28;20130;-58
2021/04/16 22:47:54;;;;;;;2.53;1.20;;;16.90;26.90;;;;;;8399386;28;20028;-57
2021/04/16 22:51:55;;;;;;;1.63;1.30;;;16.80;26.80;;;;;;8365721;28;20039;-58
2021/04/16 22:55:59;;;;;;;1.80;1.50;;;16.80;26.80;;;;;;8385110;28;20035;-57
2021/04/16 23:00:00;;;;;;;1.48;1.25;;;16.80;26.90;;;;;;8394354;28;20067;-57
2021/04/16 23:04:15;;;;;;;2.70;1.70;;;16.80;26.90;;;;;;8396257;28;20032;-57
2021/04/16 23:08:31;;;;;;;1.45;1.30;;;16.80;26.90;;;;;;8400275;28;20056;-57
2021/04/16 23:12:34;;;;;;;1.77;1.35;;;16.80;26.90;;;;;;8369093;28;20040;-56
2021/04/16 23:16:40;;;;;;;1.40;1.30;;;16.80;26.90;;;;;;8375750;28;20048;-58
2021/04/16 23:20:41;;;;;;;1.42;1.23;;;16.80;26.90;;;;;;8373552;28;20075;-58
2021/04/16 23:24:44;;;;;;;1.30;1.07;;;16.80;26.90;;;;;;8393606;28;20036;-58
2021/04/16 23:28:44;;;;;;;1.88;1.40;;;16.70;26.90;;;;;;8399732;28;20632;-58
2021/04/16 23:33:22;;;;;;;1.50;1.37;;;16.70;26.90;;;;;;8395111;28;20123;-58
2021/04/16 23:37:24;;;;;;;2.03;1.50;;;16.70;26.90;;;;;;8374451;28;20124;-58
2021/04/16 23:41:24;;;;;;;2.20;1.48;;;16.70;26.90;;;;;;8394200;28;20048;-59
2021/04/16 23:45:25;;;;;;;1.77;1.43;;;16.70;26.90;;;;;;8393000;28;20048;-58
2021/04/16 23:49:30;;;;;;;1.93;1.40;;;16.70;26.90;;;;;;8399226;28;20117;-58
2021/04/16 23:53:31;;;;;;;2.17;1.70;;;16.70;27.00;;;;;;8394364;28;20036;-57
2021/04/16 23:57:32;;;;;;;;;;;16.70;27.40;;;;;;8393069;28;20029;-57
